»·PEaware :: N46299 KBFL-KMHV

N46299 :: KBFL-KMHV

FLIGHT INFORMATION

Flight Status: Arrived
Operator: Privately registered:
United States
More flights under this callsign
Pilot: Victor C. (32144)
Aircraft: CESSNA 172 SKYHAWK
(C172)
More flights by this aircraft type
Origin: KBFL Meadows
United States
Destination: KMHV Mojave
United States
More flights between these airports :: More routes between these airports
Route:
File this flight plan on PilotEdge
Remarks:
Altitude:
(Current/Filed)
7,500ft
Speed:
(Current/Filed)
120kts
Departed: 15-Dec-20 01:49 PM
Arrived: 15-Dec-20 02:24 PM
Distance/Time
Traveled:
49nm/0:35
Distance/Time
To Go:
Arrived

Flight Plot

Page will automatically refresh every two minutes.


Map Options




Map Legend


Flown Route
Filed Route
Departure Airport
Arrival Airport
Navaid (VOR, NDB)
Fix

Horizontal Profiles

Position Reports

Time Latitude Longitude Heading Altitude Ground
Speed
15-Dec-20 13:19 35.437683 -119.056233 189 496ft 0kts
15-Dec-20 13:20 35.437683 -119.056233 189 496ft 0kts
15-Dec-20 13:21 35.437683 -119.056233 189 496ft 0kts
15-Dec-20 13:22 35.437683 -119.056233 189 496ft 0kts
15-Dec-20 13:23 35.437683 -119.056233 189 496ft 0kts
15-Dec-20 13:24 35.437683 -119.056233 189 496ft 0kts
15-Dec-20 13:25 35.437683 -119.056233 189 496ft 0kts
15-Dec-20 13:26 35.437683 -119.056233 189 496ft 0kts
15-Dec-20 13:27 35.437683 -119.056233 189 496ft 0kts
15-Dec-20 13:28 35.437683 -119.056233 189 496ft 0kts
15-Dec-20 13:29 35.437683 -119.056233 189 496ft 0kts
15-Dec-20 13:30 35.437683 -119.056233 189 496ft 0kts
15-Dec-20 13:31 35.437683 -119.056233 189 496ft 0kts
15-Dec-20 13:32 35.437683 -119.056233 189 496ft 0kts
15-Dec-20 13:33 35.437683 -119.056233 189 496ft 0kts
15-Dec-20 13:34 35.437683 -119.056233 189 496ft 0kts
15-Dec-20 13:35 35.437683 -119.056233 189 496ft 0kts
15-Dec-20 13:36 35.437683 -119.056233 188 496ft 0kts
15-Dec-20 13:37 35.437508 -119.056310 192 496ft 10kts
15-Dec-20 13:38 35.433042 -119.052888 136 484ft 36kts
15-Dec-20 13:39 35.428554 -119.047536 136 480ft 25kts
15-Dec-20 13:40 35.425685 -119.044094 153 472ft 7kts
15-Dec-20 13:41 35.425414 -119.044180 311 472ft 0kts
15-Dec-20 13:42 35.425414 -119.044180 311 472ft 0kts
15-Dec-20 13:43 35.425414 -119.044180 311 472ft 0kts
15-Dec-20 13:44 35.425414 -119.044180 311 472ft 0kts
15-Dec-20 13:45 35.425295 -119.044425 261 472ft 0kts
15-Dec-20 13:46 35.425295 -119.044428 264 472ft 0kts
15-Dec-20 13:47 35.425295 -119.044428 264 472ft 0kts
15-Dec-20 13:48 35.431411 -119.053193 317 579ft 79kts
15-Dec-20 13:49 35.448017 -119.069729 1 1395ft 80kts
15-Dec-20 13:50 35.454405 -119.045654 103 1959ft 105kts
15-Dec-20 13:51 35.449439 -119.010311 96 2608ft 98kts
15-Dec-20 13:52 35.439624 -118.978905 122 3223ft 99kts
15-Dec-20 13:53 35.420615 -118.956085 139 3894ft 95kts
15-Dec-20 13:54 35.399744 -118.935908 140 4419ft 100kts
15-Dec-20 13:55 35.378257 -118.912952 148 4931ft 105kts
15-Dec-20 13:56 35.358403 -118.885346 120 5425ft 109kts
15-Dec-20 13:57 35.342969 -118.854070 119 5921ft 106kts
15-Dec-20 13:58 35.326475 -118.821308 119 6334ft 118kts
15-Dec-20 13:59 35.309001 -118.786372 119 6727ft 120kts
15-Dec-20 14:00 35.291478 -118.751254 119 7132ft 120kts
15-Dec-20 14:01 35.273904 -118.715973 119 7465ft 125kts
15-Dec-20 14:02 35.254523 -118.676880 119 7489ft 138kts
15-Dec-20 14:03 35.235946 -118.635480 111 7527ft 141kts
15-Dec-20 14:04 35.221728 -118.593938 109 7500ft 126kts
15-Dec-20 14:05 35.201005 -118.559591 137 7495ft 125kts
15-Dec-20 14:06 35.175151 -118.529914 130 7558ft 130kts
15-Dec-20 14:07 35.155421 -118.494745 119 7471ft 123kts
15-Dec-20 14:08 35.137404 -118.458665 119 7486ft 124kts
15-Dec-20 14:09 35.121341 -118.421073 110 7495ft 125kts
15-Dec-20 14:10 35.104241 -118.385112 127 7494ft 122kts
15-Dec-20 14:11 35.082357 -118.352848 129 7523ft 125kts
15-Dec-20 14:12 35.055671 -118.327990 153 7474ft 119kts
15-Dec-20 14:13 35.027658 -118.306884 148 7472ft 117kts
15-Dec-20 14:14 34.998646 -118.291033 198 7291ft 115kts
15-Dec-20 14:15 34.983388 -118.315385 302 6685ft 92kts
15-Dec-20 14:16 35.005343 -118.316321 20 6074ft 87kts
15-Dec-20 14:17 35.025556 -118.298585 28 5525ft 94kts
15-Dec-20 14:18 35.046247 -118.279051 28 5307ft 85kts
15-Dec-20 14:19 35.060635 -118.253829 71 5052ft 110kts
15-Dec-20 14:20 35.058793 -118.220128 94 4264ft 98kts
15-Dec-20 14:21 35.059317 -118.188114 88 3299ft 80kts
15-Dec-20 14:22 35.059204 -118.163830 87 2779ft 52kts
15-Dec-20 14:23 35.058338 -118.157743 179 2765ft 0kts
15-Dec-20 14:24 35.057385 -118.158063 126 2767ft 6kts

Navigation Log

Ident Type
Flight plan parsing failed, navigation log unavailable